sensor_id;sensor_type;location;lat;lon;timestamp;P1;durP1;ratioP1;P2;durP2;ratioP2
36573;SDS011;22578;42.668;23.232;2024-01-15T00:01:07;3.72;;;3.42;;
36573;SDS011;22578;42.668;23.232;2024-01-15T00:04:27;2.97;;;2.53;;
36573;SDS011;22578;42.668;23.232;2024-01-15T00:07:48;1.80;;;1.70;;
36573;SDS011;22578;42.668;23.232;2024-01-15T00:11:09;3.58;;;2.78;;
36573;SDS011;22578;42.668;23.232;2024-01-15T00:14:29;2.22;;;2.13;;
36573;SDS011;22578;42.668;23.232;2024-01-15T00:17:50;2.38;;;2.28;;
36573;SDS011;22578;42.668;23.232;2024-01-15T00:21:10;2.72;;;2.42;;
36573;SDS011;22578;42.668;23.232;2024-01-15T00:24:31;3.88;;;3.58;;
36573;SDS011;22578;42.668;23.232;2024-01-15T00:27:52;3.03;;;2.83;;
36573;SDS011;22578;42.668;23.232;2024-01-15T00:31:12;3.70;;;3.17;;
36573;SDS011;22578;42.668;23.232;2024-01-15T00:34:33;6.93;;;3.67;;
36573;SDS011;22578;42.668;23.232;2024-01-15T00:37:53;2.92;;;2.72;;
36573;SDS011;22578;42.668;23.232;2024-01-15T00:41:14;3.97;;;3.67;;
36573;SDS011;22578;42.668;23.232;2024-01-15T00:44:35;5.95;;;4.28;;
36573;SDS011;22578;42.668;23.232;2024-01-15T00:47:56;3.67;;;3.42;;
36573;SDS011;22578;42.668;23.232;2024-01-15T00:51:17;3.45;;;3.15;;
36573;SDS011;22578;42.668;23.232;2024-01-15T00:54:37;3.95;;;3.70;;
36573;SDS011;22578;42.668;23.232;2024-01-15T00:57:58;2.05;;;1.95;;
36573;SDS011;22578;42.668;23.232;2024-01-15T01:01:18;4.53;;;2.55;;
36573;SDS011;22578;42.668;23.232;2024-01-15T01:04:40;4.78;;;4.30;;
36573;SDS011;22578;42.668;23.232;2024-01-15T01:08:00;3.58;;;2.90;;
36573;SDS011;22578;42.668;23.232;2024-01-15T01:11:21;3.88;;;3.65;;
36573;SDS011;22578;42.668;23.232;2024-01-15T01:14:41;3.45;;;3.20;;
36573;SDS011;22578;42.668;23.232;2024-01-15T01:18:02;2.72;;;2.53;;
36573;SDS011;22578;42.668;23.232;2024-01-15T01:21:23;3.65;;;3.35;;
36573;SDS011;22578;42.668;23.232;2024-01-15T01:24:43;3.95;;;2.65;;
36573;SDS011;22578;42.668;23.232;2024-01-15T01:28:04;2.90;;;2.67;;
36573;SDS011;22578;42.668;23.232;2024-01-15T01:31:25;2.60;;;2.40;;
36573;SDS011;22578;42.668;23.232;2024-01-15T01:34:45;2.53;;;2.35;;
36573;SDS011;22578;42.668;23.232;2024-01-15T01:38:06;2.45;;;2.35;;
36573;SDS011;22578;42.668;23.232;2024-01-15T01:41:26;3.17;;;2.97;;
36573;SDS011;22578;42.668;23.232;2024-01-15T01:44:47;2.38;;;2.28;;
36573;SDS011;22578;42.668;23.232;2024-01-15T01:48:07;2.60;;;2.45;;
36573;SDS011;22578;42.668;23.232;2024-01-15T01:51:28;4.57;;;3.47;;
36573;SDS011;22578;42.668;23.232;2024-01-15T01:54:48;4.85;;;2.47;;
36573;SDS011;22578;42.668;23.232;2024-01-15T01:58:09;2.40;;;2.25;;
36573;SDS011;22578;42.668;23.232;2024-01-15T02:01:31;1.42;;;1.42;;
36573;SDS011;22578;42.668;23.232;2024-01-15T02:04:51;2.20;;;2.10;;
36573;SDS011;22578;42.668;23.232;2024-01-15T02:08:12;2.60;;;2.35;;
36573;SDS011;22578;42.668;23.232;2024-01-15T02:11:33;2.50;;;2.30;;
36573;SDS011;22578;42.668;23.232;2024-01-15T02:14:53;2.13;;;2.03;;
36573;SDS011;22578;42.668;23.232;2024-01-15T02:18:14;1.75;;;1.65;;
36573;SDS011;22578;42.668;23.232;2024-01-15T02:21:34;1.70;;;1.60;;
36573;SDS011;22578;42.668;23.232;2024-01-15T02:24:55;2.10;;;1.98;;
36573;SDS011;22578;42.668;23.232;2024-01-15T02:28:16;4.03;;;2.58;;
36573;SDS011;22578;42.668;23.232;2024-01-15T02:31:37;2.17;;;2.08;;
36573;SDS011;22578;42.668;23.232;2024-01-15T02:34:58;3.15;;;2.35;;
36573;SDS011;22578;42.668;23.232;2024-01-15T02:38:18;3.15;;;2.95;;
36573;SDS011;22578;42.668;23.232;2024-01-15T02:41:39;2.83;;;2.53;;
36573;SDS011;22578;42.668;23.232;2024-01-15T02:44:59;8.25;;;2.78;;
36573;SDS011;22578;42.668;23.232;2024-01-15T02:48:20;2.25;;;2.15;;
36573;SDS011;22578;42.668;23.232;2024-01-15T02:51:41;4.68;;;4.10;;
36573;SDS011;22578;42.668;23.232;2024-01-15T02:55:01;3.33;;;3.13;;
36573;SDS011;22578;42.668;23.232;2024-01-15T02:58:22;3.25;;;3.00;;
36573;SDS011;22578;42.668;23.232;2024-01-15T03:01:43;2.50;;;2.30;;
36573;SDS011;22578;42.668;23.232;2024-01-15T03:05:04;1.83;;;1.73;;
36573;SDS011;22578;42.668;23.232;2024-01-15T03:08:24;2.88;;;2.67;;
36573;SDS011;22578;42.668;23.232;2024-01-15T03:11:45;2.03;;;1.92;;
36573;SDS011;22578;42.668;23.232;2024-01-15T03:15:05;1.92;;;1.83;;
36573;SDS011;22578;42.668;23.232;2024-01-15T03:18:26;2.05;;;1.95;;
36573;SDS011;22578;42.668;23.232;2024-01-15T03:21:46;3.90;;;3.30;;
36573;SDS011;22578;42.668;23.232;2024-01-15T03:25:07;3.38;;;3.13;;
36573;SDS011;22578;42.668;23.232;2024-01-15T03:28:28;2.47;;;2.28;;
36573;SDS011;22578;42.668;23.232;2024-01-15T03:31:50;2.78;;;2.30;;
36573;SDS011;22578;42.668;23.232;2024-01-15T03:35:11;1.98;;;1.88;;
36573;SDS011;22578;42.668;23.232;2024-01-15T03:38:31;7.82;;;3.85;;
36573;SDS011;22578;42.668;23.232;2024-01-15T03:41:52;4.25;;;3.25;;
36573;SDS011;22578;42.668;23.232;2024-01-15T03:45:12;2.63;;;2.40;;
36573;SDS011;22578;42.668;23.232;2024-01-15T03:48:33;3.58;;;3.30;;
36573;SDS011;22578;42.668;23.232;2024-01-15T03:51:53;2.20;;;2.10;;
36573;SDS011;22578;42.668;23.232;2024-01-15T03:55:14;2.22;;;2.13;;
36573;SDS011;22578;42.668;23.232;2024-01-15T03:58:34;1.98;;;1.88;;
36573;SDS011;22578;42.668;23.232;2024-01-15T04:01:55;2.55;;;2.40;;
36573;SDS011;22578;42.668;23.232;2024-01-15T04:05:15;2.35;;;2.25;;
36573;SDS011;22578;42.668;23.232;2024-01-15T04:08:36;1.90;;;1.80;;
36573;SDS011;22578;42.668;23.232;2024-01-15T04:11:56;2.92;;;2.72;;
36573;SDS011;22578;42.668;23.232;2024-01-15T04:15:17;2.22;;;2.13;;
36573;SDS011;22578;42.668;23.232;2024-01-15T04:18:38;2.25;;;2.08;;
36573;SDS011;22578;42.668;23.232;2024-01-15T04:21:58;2.30;;;2.20;;
36573;SDS011;22578;42.668;23.232;2024-01-15T04:25:19;2.15;;;2.05;;
36573;SDS011;22578;42.668;23.232;2024-01-15T04:28:39;3.28;;;2.13;;
36573;SDS011;22578;42.668;23.232;2024-01-15T04:32:00;2.28;;;2.13;;
36573;SDS011;22578;42.668;23.232;2024-01-15T04:35:21;2.58;;;2.35;;
36573;SDS011;22578;42.668;23.232;2024-01-15T04:38:41;1.80;;;1.70;;
36573;SDS011;22578;42.668;23.232;2024-01-15T04:42:02;2.33;;;2.13;;
36573;SDS011;22578;42.668;23.232;2024-01-15T04:45:24;2.20;;;2.05;;
36573;SDS011;22578;42.668;23.232;2024-01-15T04:48:48;3.58;;;2.95;;
36573;SDS011;22578;42.668;23.232;2024-01-15T04:52:09;2.80;;;2.60;;
36573;SDS011;22578;42.668;23.232;2024-01-15T04:55:32;4.22;;;2.72;;
36573;SDS011;22578;42.668;23.232;2024-01-15T04:58:53;1.83;;;1.75;;
36573;SDS011;22578;42.668;23.232;2024-01-15T05:02:13;3.55;;;3.25;;
36573;SDS011;22578;42.668;23.232;2024-01-15T05:05:34;1.80;;;1.70;;
36573;SDS011;22578;42.668;23.232;2024-01-15T05:08:54;2.55;;;2.30;;
36573;SDS011;22578;42.668;23.232;2024-01-15T05:12:15;2.13;;;2.03;;
36573;SDS011;22578;42.668;23.232;2024-01-15T05:15:35;2.50;;;2.35;;
36573;SDS011;22578;42.668;23.232;2024-01-15T05:18:56;1.48;;;1.48;;
36573;SDS011;22578;42.668;23.232;2024-01-15T05:22:17;2.67;;;2.47;;
36573;SDS011;22578;42.668;23.232;2024-01-15T05:25:37;1.80;;;1.70;;
36573;SDS011;22578;42.668;23.232;2024-01-15T05:28:58;1.85;;;1.75;;
36573;SDS011;22578;42.668;23.232;2024-01-15T05:32:18;9.85;;;2.58;;
36573;SDS011;22578;42.668;23.232;2024-01-15T05:35:39;2.00;;;1.90;;
36573;SDS011;22578;42.668;23.232;2024-01-15T05:38:59;2.90;;;2.65;;
36573;SDS011;22578;42.668;23.232;2024-01-15T05:42:20;2.40;;;2.25;;
36573;SDS011;22578;42.668;23.232;2024-01-15T05:45:42;2.53;;;2.35;;
36573;SDS011;22578;42.668;23.232;2024-01-15T05:49:04;2.67;;;2.50;;
36573;SDS011;22578;42.668;23.232;2024-01-15T05:52:24;2.10;;;2.00;;
36573;SDS011;22578;42.668;23.232;2024-01-15T05:55:45;1.70;;;1.60;;
36573;SDS011;22578;42.668;23.232;2024-01-15T05:59:05;2.03;;;1.92;;
36573;SDS011;22578;42.668;23.232;2024-01-15T06:02:26;1.85;;;1.75;;
36573;SDS011;22578;42.668;23.232;2024-01-15T06:05:47;1.98;;;1.88;;
36573;SDS011;22578;42.668;23.232;2024-01-15T06:09:07;3.75;;;3.10;;
36573;SDS011;22578;42.668;23.232;2024-01-15T06:12:29;2.28;;;2.10;;
36573;SDS011;22578;42.668;23.232;2024-01-15T06:15:50;2.80;;;2.60;;
36573;SDS011;22578;42.668;23.232;2024-01-15T06:19:11;2.15;;;2.05;;
36573;SDS011;22578;42.668;23.232;2024-01-15T06:22:31;2.72;;;2.22;;
36573;SDS011;22578;42.668;23.232;2024-01-15T06:25:52;4.22;;;2.45;;
36573;SDS011;22578;42.668;23.232;2024-01-15T06:29:13;2.08;;;1.98;;
36573;SDS011;22578;42.668;23.232;2024-01-15T06:32:33;3.03;;;2.13;;
36573;SDS011;22578;42.668;23.232;2024-01-15T06:35:54;1.92;;;1.83;;
36573;SDS011;22578;42.668;23.232;2024-01-15T06:39:16;2.20;;;2.03;;
36573;SDS011;22578;42.668;23.232;2024-01-15T06:42:36;2.35;;;2.25;;
36573;SDS011;22578;42.668;23.232;2024-01-15T06:45:57;2.30;;;2.10;;
36573;SDS011;22578;42.668;23.232;2024-01-15T06:49:17;3.28;;;3.00;;
36573;SDS011;22578;42.668;23.232;2024-01-15T06:52:38;1.77;;;1.67;;
36573;SDS011;22578;42.668;23.232;2024-01-15T06:55:58;3.90;;;3.22;;
36573;SDS011;22578;42.668;23.232;2024-01-15T06:59:19;1.83;;;1.73;;
36573;SDS011;22578;42.668;23.232;2024-01-15T07:02:39;3.80;;;3.50;;
36573;SDS011;22578;42.668;23.232;2024-01-15T07:06:00;5.07;;;2.72;;
36573;SDS011;22578;42.668;23.232;2024-01-15T07:09:20;6.30;;;3.67;;
36573;SDS011;22578;42.668;23.232;2024-01-15T07:12:45;3.95;;;2.85;;
36573;SDS011;22578;42.668;23.232;2024-01-15T07:16:05;3.65;;;3.38;;
36573;SDS011;22578;42.668;23.232;2024-01-15T07:19:27;2.17;;;2.08;;
36573;SDS011;22578;42.668;23.232;2024-01-15T07:22:48;3.25;;;2.90;;
36573;SDS011;22578;42.668;23.232;2024-01-15T07:26:08;2.53;;;2.42;;
36573;SDS011;22578;42.668;23.232;2024-01-15T07:29:29;1.70;;;1.63;;
36573;SDS011;22578;42.668;23.232;2024-01-15T07:32:49;4.07;;;3.42;;
36573;SDS011;22578;42.668;23.232;2024-01-15T07:36:10;5.32;;;3.10;;
36573;SDS011;22578;42.668;23.232;2024-01-15T07:39:31;3.90;;;2.60;;
36573;SDS011;22578;42.668;23.232;2024-01-15T07:42:51;2.78;;;2.58;;
36573;SDS011;22578;42.668;23.232;2024-01-15T07:46:12;2.05;;;1.95;;
36573;SDS011;22578;42.668;23.232;2024-01-15T07:49:33;2.85;;;2.65;;
36573;SDS011;22578;42.668;23.232;2024-01-15T07:52:54;2.28;;;2.17;;
36573;SDS011;22578;42.668;23.232;2024-01-15T07:56:15;5.95;;;3.22;;
36573;SDS011;22578;42.668;23.232;2024-01-15T07:59:36;2.47;;;2.28;;
36573;SDS011;22578;42.668;23.232;2024-01-15T08:02:56;3.65;;;3.35;;
36573;SDS011;22578;42.668;23.232;2024-01-15T08:06:17;4.60;;;4.20;;
36573;SDS011;22578;42.668;23.232;2024-01-15T08:09:37;3.25;;;2.95;;
36573;SDS011;22578;42.668;23.232;2024-01-15T08:12:58;3.35;;;2.88;;
36573;SDS011;22578;42.668;23.232;2024-01-15T08:16:18;5.47;;;3.08;;
36573;SDS011;22578;42.668;23.232;2024-01-15T08:19:39;2.97;;;2.78;;
36573;SDS011;22578;42.668;23.232;2024-01-15T08:23:01;5.70;;;2.92;;
36573;SDS011;22578;42.668;23.232;2024-01-15T08:26:21;2.53;;;2.33;;
36573;SDS011;22578;42.668;23.232;2024-01-15T08:29:42;2.45;;;2.25;;
36573;SDS011;22578;42.668;23.232;2024-01-15T08:33:03;6.93;;;3.97;;
36573;SDS011;22578;42.668;23.232;2024-01-15T08:36:23;4.10;;;3.70;;
36573;SDS011;22578;42.668;23.232;2024-01-15T08:39:44;8.77;;;3.95;;
36573;SDS011;22578;42.668;23.232;2024-01-15T08:43:05;4.32;;;3.92;;
36573;SDS011;22578;42.668;23.232;2024-01-15T08:46:26;5.10;;;4.60;;
36573;SDS011;22578;42.668;23.232;2024-01-15T08:49:47;3.65;;;3.33;;
36573;SDS011;22578;42.668;23.232;2024-01-15T08:53:07;5.72;;;4.25;;
36573;SDS011;22578;42.668;23.232;2024-01-15T08:56:28;4.93;;;4.32;;
36573;SDS011;22578;42.668;23.232;2024-01-15T08:59:48;2.33;;;2.22;;
36573;SDS011;22578;42.668;23.232;2024-01-15T09:03:09;4.90;;;4.50;;
36573;SDS011;22578;42.668;23.232;2024-01-15T09:06:30;3.28;;;2.97;;
36573;SDS011;22578;42.668;23.232;2024-01-15T09:09:50;4.85;;;4.15;;
36573;SDS011;22578;42.668;23.232;2024-01-15T09:13:11;6.13;;;4.53;;
36573;SDS011;22578;42.668;23.232;2024-01-15T09:16:31;5.13;;;4.35;;
36573;SDS011;22578;42.668;23.232;2024-01-15T09:19:52;3.78;;;3.47;;
36573;SDS011;22578;42.668;23.232;2024-01-15T09:23:12;3.45;;;2.97;;
36573;SDS011;22578;42.668;23.232;2024-01-15T09:26:33;6.07;;;3.38;;
36573;SDS011;22578;42.668;23.232;2024-01-15T09:29:53;6.75;;;3.47;;
36573;SDS011;22578;42.668;23.232;2024-01-15T09:33:14;8.45;;;3.42;;
36573;SDS011;22578;42.668;23.232;2024-01-15T09:36:39;4.40;;;3.47;;
36573;SDS011;22578;42.668;23.232;2024-01-15T09:40:01;7.87;;;2.97;;
36573;SDS011;22578;42.668;23.232;2024-01-15T09:43:21;2.75;;;2.55;;
36573;SDS011;22578;42.668;23.232;2024-01-15T09:46:42;3.78;;;3.20;;
36573;SDS011;22578;42.668;23.232;2024-01-15T09:50:04;3.45;;;3.15;;
36573;SDS011;22578;42.668;23.232;2024-01-15T09:53:25;4.13;;;2.85;;
36573;SDS011;22578;42.668;23.232;2024-01-15T09:56:46;6.57;;;4.20;;
36573;SDS011;22578;42.668;23.232;2024-01-15T10:00:07;10.05;;;4.07;;
36573;SDS011;22578;42.668;23.232;2024-01-15T10:03:30;3.38;;;3.13;;
36573;SDS011;22578;42.668;23.232;2024-01-15T10:06:51;3.20;;;2.95;;
36573;SDS011;22578;42.668;23.232;2024-01-15T10:10:13;4.95;;;3.33;;
36573;SDS011;22578;42.668;23.232;2024-01-15T10:13:34;8.18;;;3.88;;
36573;SDS011;22578;42.668;23.232;2024-01-15T10:16:55;6.53;;;4.10;;
36573;SDS011;22578;42.668;23.232;2024-01-15T10:20:15;4.90;;;3.33;;
36573;SDS011;22578;42.668;23.232;2024-01-15T10:23:36;7.18;;;4.05;;
36573;SDS011;22578;42.668;23.232;2024-01-15T10:27:04;6.30;;;4.22;;
36573;SDS011;22578;42.668;23.232;2024-01-15T10:30:27;4.53;;;3.35;;
36573;SDS011;22578;42.668;23.232;2024-01-15T10:33:48;4.95;;;4.45;;
36573;SDS011;22578;42.668;23.232;2024-01-15T10:37:09;11.23;;;5.60;;
36573;SDS011;22578;42.668;23.232;2024-01-15T10:40:30;7.35;;;5.00;;
36573;SDS011;22578;42.668;23.232;2024-01-15T10:43:50;7.45;;;4.93;;
36573;SDS011;22578;42.668;23.232;2024-01-15T10:47:11;12.30;;;6.95;;
36573;SDS011;22578;42.668;23.232;2024-01-15T10:50:32;8.38;;;7.05;;
36573;SDS011;22578;42.668;23.232;2024-01-15T10:53:53;4.93;;;4.45;;
36573;SDS011;22578;42.668;23.232;2024-01-15T10:57:13;10.00;;;6.47;;
36573;SDS011;22578;42.668;23.232;2024-01-15T11:00:36;10.38;;;6.82;;
36573;SDS011;22578;42.668;23.232;2024-01-15T11:03:59;7.18;;;5.95;;
36573;SDS011;22578;42.668;23.232;2024-01-15T11:07:21;14.27;;;6.97;;
36573;SDS011;22578;42.668;23.232;2024-01-15T11:14:06;8.80;;;6.13;;
36573;SDS011;22578;42.668;23.232;2024-01-15T11:17:27;10.60;;;5.68;;
36573;SDS011;22578;42.668;23.232;2024-01-15T11:21:25;6.85;;;5.03;;
36573;SDS011;22578;42.668;23.232;2024-01-15T11:24:47;8.57;;;4.15;;
36573;SDS011;22578;42.668;23.232;2024-01-15T11:28:08;8.13;;;4.63;;
36573;SDS011;22578;42.668;23.232;2024-01-15T11:35:01;4.70;;;4.03;;
36573;SDS011;22578;42.668;23.232;2024-01-15T11:38:28;9.18;;;5.20;;
36573;SDS011;22578;42.668;23.232;2024-01-15T11:41:49;5.90;;;4.18;;
36573;SDS011;22578;42.668;23.232;2024-01-15T11:45:09;6.60;;;5.15;;
36573;SDS011;22578;42.668;23.232;2024-01-15T11:48:32;4.85;;;4.05;;
36573;SDS011;22578;42.668;23.232;2024-01-15T11:51:59;5.13;;;4.22;;
36573;SDS011;22578;42.668;23.232;2024-01-15T11:55:28;7.70;;;4.45;;
36573;SDS011;22578;42.668;23.232;2024-01-15T11:58:51;3.63;;;3.33;;
36573;SDS011;22578;42.668;23.232;2024-01-15T12:02:11;7.25;;;4.15;;
36573;SDS011;22578;42.668;23.232;2024-01-15T12:05:33;8.07;;;3.30;;
36573;SDS011;22578;42.668;23.232;2024-01-15T12:09:05;7.45;;;5.13;;
36573;SDS011;22578;42.668;23.232;2024-01-15T12:16:15;4.40;;;3.97;;
36573;SDS011;22578;42.668;23.232;2024-01-15T12:19:36;9.45;;;4.88;;
36573;SDS011;22578;42.668;23.232;2024-01-15T12:22:57;5.53;;;3.65;;
36573;SDS011;22578;42.668;23.232;2024-01-15T12:26:18;3.90;;;3.45;;
36573;SDS011;22578;42.668;23.232;2024-01-15T12:29:39;6.70;;;4.45;;
36573;SDS011;22578;42.668;23.232;2024-01-15T12:33:02;7.18;;;4.20;;
36573;SDS011;22578;42.668;23.232;2024-01-15T12:36:26;3.88;;;3.38;;
36573;SDS011;22578;42.668;23.232;2024-01-15T12:39:47;3.30;;;2.85;;
36573;SDS011;22578;42.668;23.232;2024-01-15T12:43:08;3.83;;;3.40;;
36573;SDS011;22578;42.668;23.232;2024-01-15T12:46:30;4.15;;;3.65;;
36573;SDS011;22578;42.668;23.232;2024-01-15T12:49:51;4.50;;;3.08;;
36573;SDS011;22578;42.668;23.232;2024-01-15T12:53:15;4.30;;;3.83;;
36573;SDS011;22578;42.668;23.232;2024-01-15T12:56:37;3.10;;;2.78;;
36573;SDS011;22578;42.668;23.232;2024-01-15T12:59:58;3.92;;;3.53;;
36573;SDS011;22578;42.668;23.232;2024-01-15T13:03:18;3.75;;;3.45;;
36573;SDS011;22578;42.668;23.232;2024-01-15T13:06:39;4.10;;;3.13;;
36573;SDS011;22578;42.668;23.232;2024-01-15T13:09:59;6.25;;;3.60;;
36573;SDS011;22578;42.668;23.232;2024-01-15T13:13:20;3.35;;;3.05;;
36573;SDS011;22578;42.668;23.232;2024-01-15T13:16:40;5.22;;;3.03;;
36573;SDS011;22578;42.668;23.232;2024-01-15T13:20:01;2.85;;;2.58;;
36573;SDS011;22578;42.668;23.232;2024-01-15T13:23:23;2.95;;;2.75;;
36573;SDS011;22578;42.668;23.232;2024-01-15T13:26:43;4.75;;;3.35;;
36573;SDS011;22578;42.668;23.232;2024-01-15T13:30:04;11.27;;;4.32;;
36573;SDS011;22578;42.668;23.232;2024-01-15T13:33:26;4.13;;;3.30;;
36573;SDS011;22578;42.668;23.232;2024-01-15T13:36:47;6.72;;;4.28;;
36573;SDS011;22578;42.668;23.232;2024-01-15T13:40:07;9.60;;;5.38;;
36573;SDS011;22578;42.668;23.232;2024-01-15T13:43:29;6.35;;;4.13;;
36573;SDS011;22578;42.668;23.232;2024-01-15T13:46:51;5.70;;;3.42;;
36573;SDS011;22578;42.668;23.232;2024-01-15T13:50:12;2.83;;;2.35;;
36573;SDS011;22578;42.668;23.232;2024-01-15T13:53:33;6.15;;;5.07;;
36573;SDS011;22578;42.668;23.232;2024-01-15T13:56:54;8.27;;;4.90;;
36573;SDS011;22578;42.668;23.232;2024-01-15T14:00:14;6.80;;;4.47;;
36573;SDS011;22578;42.668;23.232;2024-01-15T14:03:38;5.15;;;3.72;;
36573;SDS011;22578;42.668;23.232;2024-01-15T14:06:59;4.63;;;3.88;;
36573;SDS011;22578;42.668;23.232;2024-01-15T14:10:19;4.32;;;3.88;;
36573;SDS011;22578;42.668;23.232;2024-01-15T14:13:40;4.40;;;3.47;;
36573;SDS011;22578;42.668;23.232;2024-01-15T14:17:00;7.30;;;4.25;;
36573;SDS011;22578;42.668;23.232;2024-01-15T14:20:21;3.60;;;3.30;;
36573;SDS011;22578;42.668;23.232;2024-01-15T14:23:41;5.30;;;4.30;;
36573;SDS011;22578;42.668;23.232;2024-01-15T14:27:02;7.68;;;5.30;;
36573;SDS011;22578;42.668;23.232;2024-01-15T14:30:25;8.57;;;4.90;;
36573;SDS011;22578;42.668;23.232;2024-01-15T14:33:46;4.03;;;3.20;;
36573;SDS011;22578;42.668;23.232;2024-01-15T14:37:06;6.78;;;4.75;;
36573;SDS011;22578;42.668;23.232;2024-01-15T14:40:27;8.13;;;3.60;;
36573;SDS011;22578;42.668;23.232;2024-01-15T14:43:47;4.10;;;3.13;;
36573;SDS011;22578;42.668;23.232;2024-01-15T14:47:08;3.95;;;2.95;;
36573;SDS011;22578;42.668;23.232;2024-01-15T14:50:28;7.05;;;5.07;;
36573;SDS011;22578;42.668;23.232;2024-01-15T14:53:49;17.20;;;3.72;;
36573;SDS011;22578;42.668;23.232;2024-01-15T14:57:09;5.85;;;3.38;;
36573;SDS011;22578;42.668;23.232;2024-01-15T15:00:30;3.17;;;2.92;;
36573;SDS011;22578;42.668;23.232;2024-01-15T15:03:50;5.25;;;4.20;;
36573;SDS011;22578;42.668;23.232;2024-01-15T15:07:11;6.53;;;3.78;;
36573;SDS011;22578;42.668;23.232;2024-01-15T15:10:31;3.35;;;2.72;;
36573;SDS011;22578;42.668;23.232;2024-01-15T15:13:52;4.80;;;4.13;;
36573;SDS011;22578;42.668;23.232;2024-01-15T15:17:13;4.30;;;3.80;;
36573;SDS011;22578;42.668;23.232;2024-01-15T15:20:33;2.42;;;2.30;;
36573;SDS011;22578;42.668;23.232;2024-01-15T15:23:54;5.13;;;3.90;;
36573;SDS011;22578;42.668;23.232;2024-01-15T15:27:14;3.60;;;2.90;;
36573;SDS011;22578;42.668;23.232;2024-01-15T15:30:35;8.65;;;2.58;;
36573;SDS011;22578;42.668;23.232;2024-01-15T15:33:55;4.47;;;3.80;;
36573;SDS011;22578;42.668;23.232;2024-01-15T15:37:16;6.88;;;4.40;;
36573;SDS011;22578;42.668;23.232;2024-01-15T15:40:37;4.07;;;3.63;;
36573;SDS011;22578;42.668;23.232;2024-01-15T15:43:58;13.65;;;4.43;;
36573;SDS011;22578;42.668;23.232;2024-01-15T15:47:20;6.65;;;3.72;;
36573;SDS011;22578;42.668;23.232;2024-01-15T15:50:41;3.40;;;3.10;;
36573;SDS011;22578;42.668;23.232;2024-01-15T15:54:02;4.22;;;3.75;;
36573;SDS011;22578;42.668;23.232;2024-01-15T15:57:24;3.40;;;3.08;;
36573;SDS011;22578;42.668;23.232;2024-01-15T16:00:46;5.45;;;3.53;;
36573;SDS011;22578;42.668;23.232;2024-01-15T16:04:06;3.47;;;3.17;;
36573;SDS011;22578;42.668;23.232;2024-01-15T16:07:27;3.17;;;2.75;;
36573;SDS011;22578;42.668;23.232;2024-01-15T16:10:48;6.03;;;2.90;;
36573;SDS011;22578;42.668;23.232;2024-01-15T16:14:11;6.65;;;3.42;;
36573;SDS011;22578;42.668;23.232;2024-01-15T16:17:31;4.85;;;3.90;;
36573;SDS011;22578;42.668;23.232;2024-01-15T16:20:53;5.82;;;4.47;;
36573;SDS011;22578;42.668;23.232;2024-01-15T16:24:13;11.00;;;4.68;;
36573;SDS011;22578;42.668;23.232;2024-01-15T16:27:35;5.93;;;4.28;;
36573;SDS011;22578;42.668;23.232;2024-01-15T16:30:55;3.88;;;3.33;;
36573;SDS011;22578;42.668;23.232;2024-01-15T16:34:16;4.70;;;3.70;;
36573;SDS011;22578;42.668;23.232;2024-01-15T16:37:36;7.22;;;4.65;;
36573;SDS011;22578;42.668;23.232;2024-01-15T16:40:57;5.35;;;4.85;;
36573;SDS011;22578;42.668;23.232;2024-01-15T16:44:18;4.47;;;3.47;;
36573;SDS011;22578;42.668;23.232;2024-01-15T16:47:38;8.25;;;5.03;;
36573;SDS011;22578;42.668;23.232;2024-01-15T16:51:00;4.82;;;3.78;;
36573;SDS011;22578;42.668;23.232;2024-01-15T16:54:20;4.38;;;3.75;;
36573;SDS011;22578;42.668;23.232;2024-01-15T16:57:41;5.53;;;5.05;;
36573;SDS011;22578;42.668;23.232;2024-01-15T17:01:01;7.28;;;5.50;;
36573;SDS011;22578;42.668;23.232;2024-01-15T17:04:22;8.85;;;4.50;;
36573;SDS011;22578;42.668;23.232;2024-01-15T17:07:43;9.23;;;4.70;;
36573;SDS011;22578;42.668;23.232;2024-01-15T17:11:04;7.35;;;6.60;;
36573;SDS011;22578;42.668;23.232;2024-01-15T17:14:25;13.93;;;6.68;;
36573;SDS011;22578;42.668;23.232;2024-01-15T17:17:45;5.38;;;4.55;;
36573;SDS011;22578;42.668;23.232;2024-01-15T17:21:06;6.05;;;4.47;;
36573;SDS011;22578;42.668;23.232;2024-01-15T17:24:27;6.75;;;6.03;;
36573;SDS011;22578;42.668;23.232;2024-01-15T17:27:48;10.85;;;6.53;;
36573;SDS011;22578;42.668;23.232;2024-01-15T17:31:09;7.38;;;3.80;;
36573;SDS011;22578;42.668;23.232;2024-01-15T17:34:30;7.97;;;5.22;;
36573;SDS011;22578;42.668;23.232;2024-01-15T17:37:50;5.72;;;5.22;;
36573;SDS011;22578;42.668;23.232;2024-01-15T17:41:11;8.35;;;5.43;;
36573;SDS011;22578;42.668;23.232;2024-01-15T17:44:32;5.78;;;5.00;;
36573;SDS011;22578;42.668;23.232;2024-01-15T17:47:53;6.50;;;5.28;;
36573;SDS011;22578;42.668;23.232;2024-01-15T17:51:17;8.85;;;5.80;;
36573;SDS011;22578;42.668;23.232;2024-01-15T17:54:40;9.68;;;5.60;;
36573;SDS011;22578;42.668;23.232;2024-01-15T17:58:00;5.97;;;3.80;;
36573;SDS011;22578;42.668;23.232;2024-01-15T18:01:21;6.88;;;4.95;;
36573;SDS011;22578;42.668;23.232;2024-01-15T18:04:42;5.90;;;4.97;;
36573;SDS011;22578;42.668;23.232;2024-01-15T18:08:02;6.10;;;5.15;;
36573;SDS011;22578;42.668;23.232;2024-01-15T18:11:24;6.97;;;5.65;;
36573;SDS011;22578;42.668;23.232;2024-01-15T18:14:44;5.18;;;4.55;;
36573;SDS011;22578;42.668;23.232;2024-01-15T18:18:05;7.13;;;4.43;;
36573;SDS011;22578;42.668;23.232;2024-01-15T18:21:26;8.38;;;6.03;;
36573;SDS011;22578;42.668;23.232;2024-01-15T18:24:46;10.73;;;4.50;;
36573;SDS011;22578;42.668;23.232;2024-01-15T18:28:13;10.43;;;4.70;;
36573;SDS011;22578;42.668;23.232;2024-01-15T18:31:34;4.20;;;3.83;;
36573;SDS011;22578;42.668;23.232;2024-01-15T18:34:55;5.47;;;4.57;;
36573;SDS011;22578;42.668;23.232;2024-01-15T18:38:15;3.22;;;2.95;;
36573;SDS011;22578;42.668;23.232;2024-01-15T18:41:36;4.57;;;4.00;;
36573;SDS011;22578;42.668;23.232;2024-01-15T18:44:57;9.90;;;6.15;;
36573;SDS011;22578;42.668;23.232;2024-01-15T18:48:20;13.25;;;7.55;;
36573;SDS011;22578;42.668;23.232;2024-01-15T18:51:41;4.45;;;4.05;;
36573;SDS011;22578;42.668;23.232;2024-01-15T18:55:02;3.33;;;3.03;;
36573;SDS011;22578;42.668;23.232;2024-01-15T18:58:25;4.60;;;2.78;;
36573;SDS011;22578;42.668;23.232;2024-01-15T19:01:46;4.15;;;3.78;;
36573;SDS011;22578;42.668;23.232;2024-01-15T19:05:06;3.47;;;3.17;;
36573;SDS011;22578;42.668;23.232;2024-01-15T19:08:28;2.78;;;2.55;;
36573;SDS011;22578;42.668;23.232;2024-01-15T19:11:50;4.72;;;2.80;;
36573;SDS011;22578;42.668;23.232;2024-01-15T19:15:10;1.20;;;1.20;;
36573;SDS011;22578;42.668;23.232;2024-01-15T19:18:31;1.55;;;1.45;;
36573;SDS011;22578;42.668;23.232;2024-01-15T19:21:51;1.30;;;1.30;;
36573;SDS011;22578;42.668;23.232;2024-01-15T19:25:13;1.20;;;1.20;;
36573;SDS011;22578;42.668;23.232;2024-01-15T19:28:34;1.75;;;1.65;;
36573;SDS011;22578;42.668;23.232;2024-01-15T19:31:55;4.05;;;3.53;;
36573;SDS011;22578;42.668;23.232;2024-01-15T19:35:18;4.95;;;3.22;;
36573;SDS011;22578;42.668;23.232;2024-01-15T19:38:40;4.60;;;3.55;;
36573;SDS011;22578;42.668;23.232;2024-01-15T19:42:00;5.13;;;3.90;;
36573;SDS011;22578;42.668;23.232;2024-01-15T19:45:21;7.47;;;5.50;;
36573;SDS011;22578;42.668;23.232;2024-01-15T19:48:41;9.00;;;4.82;;
36573;SDS011;22578;42.668;23.232;2024-01-15T19:52:02;4.60;;;3.20;;
36573;SDS011;22578;42.668;23.232;2024-01-15T19:55:23;3.13;;;2.72;;
36573;SDS011;22578;42.668;23.232;2024-01-15T19:58:43;2.58;;;2.40;;
36573;SDS011;22578;42.668;23.232;2024-01-15T20:02:04;4.45;;;4.05;;